Fotini Z — SVA7621 — position and weather

sailwx.info

Track history (hours):
 
Tides and Currents Weather Stations Pressure Air Temp Water Temp Dewpoint Dewpoint Depression Visibility Wind Speed Wind Dir Waves Ship Positions

Fotini Z

Last reported at 2017-Sep-22 01:58 UTC. Time now 2017-Sep-22 19:09 UTC.
Position N 37°57' E 023°36'.

Length 38 m; draft 3.6 m.

Type: Tug. MMSI: 241500000.

Date/timePositionNaut miles runAvg speedWind from/ knotsBaromVisibWave heightAir tempDewpointWater temp
2017-Sep-22 01:58N 37°57' E 023°36'0 0.0
2017-Sep-22 01:28N 37°57' E 023°36'0 0.0
2017-Sep-22 00:58N 37°57' E 023°36'0 0.0
2017-Sep-22 00:28N 37°57' E 023°36'0 0.0
2017-Sep-21 23:58N 37°57' E 023°36'0 0.0
2017-Sep-21 23:28N 37°57' E 023°36'0 0.0
2017-Sep-21 22:58N 37°57' E 023°36'0 0.0
2017-Sep-21 22:28N 37°57' E 023°36'0 0.0
2017-Sep-21 21:58N 37°57' E 023°36'0 0.0
2017-Sep-21 21:28N 37°57' E 023°36'0 0.0
2017-Sep-21 20:58N 37°57' E 023°36'0 0.0
2017-Sep-21 20:28N 37°57' E 023°36'0 0.0
2017-Sep-21 19:58N 37°57' E 023°36'0 0.0
2017-Sep-21 19:25N 37°57' E 023°36'2 5.6
2017-Sep-21 19:00N 37°57' E 023°33'4 8.3
2017-Sep-21 18:28N 38°02' E 023°33'1 1.1
2017-Sep-21 17:58N 38°02' E 023°32'0 0.8
2017-Sep-21 17:31N 38°02' E 023°32'1 1.4
2017-Sep-21 16:58N 38°01' E 023°32'0 0.5
2017-Sep-21 16:28N 38°01' E 023°31'1 1.8
2017-Sep-21 16:00N 38°02' E 023°30'0 0.4
2017-Sep-21 15:28N 38°02' E 023°30'1 1.1
2017-Sep-21 15:01N 38°01' E 023°30'2 4.2
2017-Sep-21 14:30N 38°00' E 023°33'2 4.0
2017-Sep-21 14:00N 37°58' E 023°33'1 2.0
2017-Sep-21 13:30N 37°57' E 023°33'0 0.5
2017-Sep-21 13:00N 37°58' E 023°33'0 0.0
2017-Sep-21 12:27N 37°58' E 023°33'0 0.0
2017-Sep-21 12:00N 37°58' E 023°33'0 0.0
2017-Sep-21 11:27N 37°58' E 023°33'0 0.0
2017-Sep-21 10:51N 37°58' E 023°33'0 0.1
2017-Sep-21 10:30N 37°58' E 023°33'0 0.0
2017-Sep-21 10:00N 37°58' E 023°33'0 0.0
2017-Sep-21 09:30N 37°58' E 023°33'0 0.0
2017-Sep-21 09:00N 37°58' E 023°33'0 0.0
2017-Sep-21 08:30N 37°58' E 023°33'0 0.0
2017-Sep-21 08:00N 37°58' E 023°33'0 0.0
2017-Sep-21 07:30N 37°58' E 023°33'0 0.0
2017-Sep-21 07:00N 37°58' E 023°33'0 0.0
2017-Sep-21 06:30N 37°58' E 023°33'2 4.4
2017-Sep-21 06:00N 37°57' E 023°36'0 0.4
2017-Sep-21 05:30N 37°57' E 023°36'0 0.0
2017-Sep-21 05:00N 37°57' E 023°36'0 0.0
2017-Sep-21 04:30N 37°57' E 023°36'0 0.0
2017-Sep-21 03:57N 37°57' E 023°36'0 0.0
2017-Sep-21 03:30N 37°57' E 023°36'0 0.0
2017-Sep-21 03:00N 37°57' E 023°36'0 0.0
2017-Sep-21 02:30N 37°57' E 023°36'0 0.0
2017-Sep-21 01:57N 37°57' E 023°36'0 0.0
2017-Sep-21 01:30N 37°57' E 023°36'0 0.0
2017-Sep-21 00:57N 37°57' E 023°36'0 0.0
2017-Sep-21 00:30N 37°57' E 023°36'0 0.0
2017-Sep-21 00:00N 37°57' E 023°36'0 0.0
2017-Sep-20 23:30N 37°57' E 023°36'0 0.0
2017-Sep-20 23:00N 37°57' E 023°36'0 0.0
2017-Sep-20 22:30N 37°57' E 023°36'0 0.0
2017-Sep-20 22:00N 37°57' E 023°36'0 0.0
2017-Sep-20 21:30N 37°57' E 023°36'0 0.0
2017-Sep-20 21:00N 37°57' E 023°36'0 0.0
2017-Sep-20 20:30N 37°57' E 023°36'0 0.0
2017-Sep-20 19:57N 37°57' E 023°36'0 0.0
2017-Sep-20 19:30N 37°57' E 023°36'0 0.0
2017-Sep-20 19:00N 37°57' E 023°36'0 0.0
2017-Sep-20 18:30N 37°57' E 023°36'0 0.0
2017-Sep-20 17:59N 37°57' E 023°36'0 0.0
2017-Sep-20 17:29N 37°57' E 023°36'0 0.0
2017-Sep-20 16:59N 37°57' E 023°36'0 0.0
2017-Sep-20 16:29N 37°57' E 023°36'0 0.0
2017-Sep-20 15:59N 37°57' E 023°36'0 0.0
2017-Sep-20 15:29N 37°57' E 023°36'0 0.0
2017-Sep-20 14:59N 37°57' E 023°36'0 0.0
2017-Sep-20 13:59N 37°57' E 023°36'0 0.0
2017-Sep-20 13:29N 37°57' E 023°36'0 0.0
2017-Sep-20 12:59N 37°57' E 023°36'0 0.0
2017-Sep-20 12:29N 37°57' E 023°36'0 0.0
2017-Sep-20 11:56N 37°57' E 023°36'0 0.0
2017-Sep-20 11:29N 37°57' E 023°36'0 0.0
2017-Sep-20 10:56N 37°57' E 023°36'0 0.0
2017-Sep-20 10:26N 37°57' E 023°36'0 0.0
2017-Sep-20 09:59N 37°57' E 023°36'0 0.0
2017-Sep-20 09:29N 37°57' E 023°36'0 0.0
2017-Sep-20 08:59N 37°57' E 023°36'0 0.0
2017-Sep-20 08:29N 37°57' E 023°36'0 0.0
2017-Sep-20 07:59N 37°57' E 023°36'0 0.0
2017-Sep-20 07:26N 37°57' E 023°36'0 0.0
2017-Sep-20 06:59N 37°57' E 023°36'0 0.0
2017-Sep-20 06:29N 37°57' E 023°36'0 0.0
2017-Sep-20 05:59N 37°57' E 023°36'0 0.0
2017-Sep-20 05:29N 37°57' E 023°36'0 0.0
2017-Sep-20 04:59N 37°57' E 023°36'0 0.0
2017-Sep-20 04:26N 37°57' E 023°36'0 0.0
2017-Sep-20 03:59N 37°57' E 023°36'0 0.0
2017-Sep-20 03:29N 37°57' E 023°36'0 0.0
2017-Sep-20 02:59N 37°57' E 023°36'0 0.0
2017-Sep-20 02:29N 37°57' E 023°36'0 0.0
2017-Sep-20 01:59N 37°57' E 023°36'0 0.0
2017-Sep-20 01:26N 37°57' E 023°36'0 0.0
2017-Sep-20 00:59N 37°57' E 023°36'0 0.0
2017-Sep-20 00:29N 37°57' E 023°36'0 0.0
2017-Sep-19 23:59N 37°57' E 023°36'0 0.0
2017-Sep-19 23:29N 37°57' E 023°36'0 0.0
2017-Sep-19 22:56N 37°57' E 023°36'0 0.0
2017-Sep-19 22:26N 37°57' E 023°36'0 0.0
2017-Sep-19 21:59N 37°57' E 023°36'0 0.0
2017-Sep-19 21:29N 37°57' E 023°36'0 0.0
2017-Sep-19 20:59N 37°57' E 023°36'0 0.0
2017-Sep-19 20:26N 37°57' E 023°36'0 0.0
2017-Sep-19 19:59N 37°57' E 023°36'0 0.0
2017-Sep-19 19:29N 37°57' E 023°36'0 0.0
2017-Sep-19 18:59N 37°57' E 023°36'0 0.0
2017-Sep-19 18:29N 37°57' E 023°36'0 0.0
2017-Sep-19 17:59N 37°57' E 023°36'0 0.0
2017-Sep-19 17:29N 37°57' E 023°36'0 0.0
2017-Sep-19 16:59N 37°57' E 023°36'0 0.0
2017-Sep-19 16:29N 37°57' E 023°36'0 0.0
2017-Sep-19 15:59N 37°57' E 023°36'0 0.0
2017-Sep-19 15:29N 37°57' E 023°36'0 0.0
2017-Sep-19 14:59N 37°57' E 023°36'0 0.0
2017-Sep-19 14:29N 37°57' E 023°36'0 0.0
2017-Sep-19 13:56N 37°57' E 023°36'0 0.0
2017-Sep-19 13:29N 37°57' E 023°36'0 0.0
2017-Sep-19 12:59N 37°57' E 023°36'0 0.0
2017-Sep-19 12:29N 37°57' E 023°36'0 0.0
2017-Sep-19 11:59N 37°57' E 023°36'0 0.0
2017-Sep-19 11:29N 37°57' E 023°36'0 0.0
2017-Sep-19 10:59N 37°57' E 023°36'0 0.0
2017-Sep-19 10:29N 37°57' E 023°36'0 0.0
2017-Sep-19 09:59N 37°57' E 023°36'0 0.0
2017-Sep-19 09:29N 37°57' E 023°36'0 0.0
2017-Sep-19 08:59N 37°57' E 023°36'0 0.0
2017-Sep-19 08:29N 37°57' E 023°36'0 0.0
2017-Sep-19 07:56N 37°57' E 023°36'0 0.0
2017-Sep-19 07:29N 37°57' E 023°36'0 0.0
2017-Sep-19 06:59N 37°57' E 023°36'0 0.0
2017-Sep-19 06:29N 37°57' E 023°36'0 0.0
2017-Sep-19 05:59N 37°57' E 023°36'0 0.0
2017-Sep-19 05:29N 37°57' E 023°36'0 0.0
2017-Sep-19 04:59N 37°57' E 023°36'0 0.0
2017-Sep-19 04:29N 37°57' E 023°36'0 0.0
2017-Sep-19 03:59N 37°57' E 023°36'0 0.0
2017-Sep-19 03:29N 37°57' E 023°36'0 0.0
2017-Sep-19 02:59N 37°57' E 023°36'0 0.0
2017-Sep-19 02:29N 37°57' E 023°36'0 0.0
2017-Sep-19 01:59N 37°57' E 023°36'0 0.0
2017-Sep-19 01:29N 37°57' E 023°36'0 0.0
2017-Sep-19 00:59N 37°57' E 023°36'0 0.0
2017-Sep-19 00:29N 37°57' E 023°36'0 0.0
2017-Sep-18 23:59N 37°57' E 023°36'0 0.0
2017-Sep-18 23:29N 37°57' E 023°36'0 0.0
2017-Sep-18 22:59N 37°57' E 023°36'0 0.0
2017-Sep-18 22:29N 37°57' E 023°36'0 0.0
2017-Sep-18 21:59N 37°57' E 023°36'0 0.0
2017-Sep-18 21:29N 37°57' E 023°36'0 0.0
2017-Sep-18 20:59N 37°57' E 023°36'0 0.0
2017-Sep-18 20:29N 37°57' E 023°36'0 0.0
2017-Sep-18 19:59N 37°57' E 023°36'0 0.0
2017-Sep-18 19:29N 37°57' E 023°36'0 0.0
2017-Sep-18 18:59N 37°57' E 023°36'0 0.0
2017-Sep-18 18:26N 37°57' E 023°36'0 0.0
2017-Sep-18 17:56N 37°57' E 023°36'0 0.0
2017-Sep-18 17:26N 37°57' E 023°36'0 0.0
2017-Sep-18 16:59N 37°57' E 023°36'0 0.0
2017-Sep-18 16:26N 37°57' E 023°36'0 0.0
2017-Sep-18 15:53N 37°57' E 023°36'0 0.0
2017-Sep-18 15:29N 37°57' E 023°36'0 0.0
2017-Sep-18 14:59N 37°57' E 023°36'0 0.0
2017-Sep-18 14:29N 37°57' E 023°36'0 0.0
2017-Sep-18 13:59N 37°57' E 023°36'0 0.0
2017-Sep-18 13:29N 37°57' E 023°36'0 0.0
2017-Sep-18 12:59N 37°57' E 023°36'0 0.0
2017-Sep-18 12:29N 37°57' E 023°36'0 0.0
2017-Sep-18 11:56N 37°57' E 023°36'0 0.0
2017-Sep-18 11:29N 37°57' E 023°36'0 0.0
2017-Sep-18 10:59N 37°57' E 023°36'0 0.0
2017-Sep-18 10:29N 37°57' E 023°36'1 1.0
2017-Sep-18 09:58N 37°57' E 023°36'1 1.1
2017-Sep-18 09:29N 37°57' E 023°36'0 0.0
2017-Sep-18 08:59N 37°57' E 023°36'0 0.0
2017-Sep-18 08:26N 37°57' E 023°36'0 0.0
2017-Sep-18 07:59N 37°57' E 023°36'0 0.0
2017-Sep-18 07:29N 37°57' E 023°36'0 0.2
2017-Sep-18 06:56N 37°57' E 023°36'0 0.3
2017-Sep-18 06:29N 37°57' E 023°36'0 0.0
2017-Sep-18 05:59N 37°57' E 023°36'0 0.0
2017-Sep-18 05:29N 37°57' E 023°36'0 0.0
2017-Sep-18 04:59N 37°57' E 023°36'0 0.0
2017-Sep-18 04:29N 37°57' E 023°36'0 0.0
2017-Sep-18 03:59N 37°57' E 023°36'0 0.0
2017-Sep-18 03:29N 37°57' E 023°36'0 0.0
2017-Sep-18 02:59N 37°57' E 023°36'0 0.0
2017-Sep-18 02:29N 37°57' E 023°36'0 0.0
2017-Sep-18 01:56N 37°57' E 023°36'0 0.0
2017-Sep-18 01:29N 37°57' E 023°36'0 0.0
2017-Sep-18 00:59N 37°57' E 023°36'0 0.0
2017-Sep-18 00:29N 37°57' E 023°36'0 0.0
2017-Sep-17 23:59N 37°57' E 023°36'0 0.0
2017-Sep-17 23:29N 37°57' E 023°36'0 0.0
2017-Sep-17 22:59N 37°57' E 023°36'0 0.0
2017-Sep-17 22:26N 37°57' E 023°36'0 0.0
2017-Sep-17 21:59N 37°57' E 023°36'0 0.0
2017-Sep-17 21:29N 37°57' E 023°36'0 0.0
2017-Sep-17 20:56N 37°57' E 023°36'0 0.0
2017-Sep-17 20:29N 37°57' E 023°36'0 0.0
2017-Sep-17 19:59N 37°57' E 023°36'0 0.0
2017-Sep-17 19:29N 37°57' E 023°36'0 0.0
2017-Sep-17 18:59N 37°57' E 023°36'0 0.0
2017-Sep-17 18:29N 37°57' E 023°36'0 0.0
2017-Sep-17 17:56N 37°57' E 023°36'0 0.0
2017-Sep-17 17:26N 37°57' E 023°36'0 0.0
2017-Sep-17 16:59N 37°57' E 023°36'0 0.0
2017-Sep-17 16:29N 37°57' E 023°36'0 0.0
2017-Sep-17 15:59N 37°57' E 023°36'0 0.0
2017-Sep-17 15:29N 37°57' E 023°36'0 0.0
2017-Sep-17 14:59N 37°57' E 023°36'0 0.0
2017-Sep-17 14:26N 37°57' E 023°36'0 0.0
2017-Sep-17 13:59N 37°57' E 023°36'0 0.0
2017-Sep-17 13:26N 37°57' E 023°36'0 0.0
2017-Sep-17 12:59N 37°57' E 023°36'0 0.0
2017-Sep-17 12:29N 37°57' E 023°36'0 0.0
2017-Sep-17 11:59N 37°57' E 023°36'0 0.0
2017-Sep-17 11:29N 37°57' E 023°36'0 0.0
2017-Sep-17 10:59N 37°57' E 023°36'0 0.0
2017-Sep-17 10:29N 37°57' E 023°36'0 0.0
2017-Sep-17 09:59N 37°57' E 023°36'0 0.0
2017-Sep-17 09:29N 37°57' E 023°36'0 0.0
2017-Sep-17 08:59N 37°57' E 023°36'0 0.0
2017-Sep-17 08:29N 37°57' E 023°36'0 0.0
2017-Sep-17 07:59N 37°57' E 023°36'0 0.0
2017-Sep-17 07:29N 37°57' E 023°36'0 0.0
2017-Sep-17 06:59N 37°57' E 023°36'0 0.0
2017-Sep-17 06:29N 37°57' E 023°36'0 0.0
2017-Sep-17 05:59N 37°57' E 023°36'0 0.0
2017-Sep-17 05:29N 37°57' E 023°36'0 0.0
2017-Sep-17 04:59N 37°57' E 023°36'0 0.0
2017-Sep-17 04:26N 37°57' E 023°36'0 0.0
2017-Sep-17 03:59N 37°57' E 023°36'0 0.0
2017-Sep-17 03:29N 37°57' E 023°36'0 0.0
2017-Sep-17 02:56N 37°57' E 023°36'0 0.0
2017-Sep-17 02:29N 37°57' E 023°36'0 0.0
2017-Sep-17 01:59N 37°57' E 023°36'0 0.0
2017-Sep-17 01:29N 37°57' E 023°36'0 0.0
2017-Sep-17 00:56N 37°57' E 023°36'0 0.0
2017-Sep-17 00:29N 37°57' E 023°36'0 0.0
2017-Sep-16 23:59N 37°57' E 023°36'0 0.0
2017-Sep-16 23:29N 37°57' E 023°36'0 0.0
2017-Sep-16 22:59N 37°57' E 023°36'0 0.0
2017-Sep-16 22:29N 37°57' E 023°36'0 0.0
2017-Sep-16 21:59N 37°57' E 023°36'0 0.0
2017-Sep-16 21:29N 37°57' E 023°36'0 0.0
2017-Sep-16 20:59N 37°57' E 023°36'0 0.0
2017-Sep-16 20:29N 37°57' E 023°36'0 0.0
2017-Sep-16 19:59N 37°57' E 023°36'0 0.0
2017-Sep-16 19:26N 37°57' E 023°36'0 0.0
2017-Sep-16 18:56N 37°57' E 023°36'0 0.0
2017-Sep-16 18:29N 37°57' E 023°36'0 0.0
2017-Sep-16 17:56N 37°57' E 023°36'0 0.0
2017-Sep-16 17:20N 37°57' E 023°36'0 0.0
2017-Sep-16 16:59N 37°57' E 023°36'0 0.0
2017-Sep-16 16:29N 37°57' E 023°36'1 2.1
2017-Sep-16 16:01N 37°57' E 023°35'4 7.6
2017-Sep-16 15:31N 38°00' E 023°33'2 4.1
2017-Sep-16 14:59N 38°02' E 023°32'1 2.4
2017-Sep-16 14:30N 38°01' E 023°32'1 2.7
2017-Sep-16 14:00N 38°00' E 023°33'4 7.5
2017-Sep-16 13:30N 37°57' E 023°35'1 1.3
2017-Sep-16 12:56N 37°57' E 023°36'0 0.0
2017-Sep-16 12:29N 37°57' E 023°36'0 0.0
2017-Sep-16 11:56N 37°57' E 023°36'0 0.0
2017-Sep-16 11:29N 37°57' E 023°36'0 0.0
2017-Sep-16 10:59N 37°57' E 023°36'0 0.0
2017-Sep-16 10:29N 37°57' E 023°36'0 0.0
2017-Sep-16 09:59N 37°57' E 023°36'0 0.0
2017-Sep-16 09:29N 37°57' E 023°36'0 0.0
2017-Sep-16 08:56N 37°57' E 023°36'0 0.0
2017-Sep-16 08:29N 37°57' E 023°36'0 0.0
2017-Sep-16 07:59N 37°57' E 023°36'0 0.0
2017-Sep-16 07:26N 37°57' E 023°36'0 0.0
2017-Sep-16 06:59N 37°57' E 023°36'0 0.0
2017-Sep-16 06:29N 37°57' E 023°36'0 0.0
2017-Sep-16 05:59N 37°57' E 023°36'0 0.0
2017-Sep-16 05:29N 37°57' E 023°36'0 0.0
2017-Sep-16 04:59N 37°57' E 023°36'0 0.0
2017-Sep-16 04:29N 37°57' E 023°36'0 0.0
2017-Sep-16 03:59N 37°57' E 023°36'0 0.0
2017-Sep-16 03:29N 37°57' E 023°36'0 0.0
2017-Sep-16 02:59N 37°57' E 023°36'1 2.5
2017-Sep-16 02:29N 37°56' E 023°38'0 0.1
2017-Sep-16 01:59N 37°56' E 023°38'1 2.4
2017-Sep-16 01:30N 37°56' E 023°37'1 2.4
2017-Sep-16 00:58N 37°57' E 023°36'0 0.0
2017-Sep-16 00:28N 37°57' E 023°36'0 0.0
2017-Sep-15 23:52N 37°57' E 023°36'0 0.0
2017-Sep-15 23:28N 37°57' E 023°36'0 0.0
2017-Sep-15 22:55N 37°57' E 023°36'0 0.0
2017-Sep-15 22:28N 37°57' E 023°36'0 0.0
2017-Sep-15 21:58N 37°57' E 023°36'0 0.0
2017-Sep-15 21:28N 37°57' E 023°36'0 0.0
2017-Sep-15 20:49N 37°57' E 023°36'0 0.0
2017-Sep-15 20:28N 37°57' E 023°36'0 0.0
2017-Sep-15 19:58N 37°57' E 023°36'1 3.0
2017-Sep-15 19:30N 37°57' E 023°35'0 0.4
2017-Sep-15 19:00N 37°57' E 023°35'1 2.0
2017-Sep-15 18:30N 37°57' E 023°36'0 0.4
2017-Sep-15 17:56N 37°57' E 023°36'0 0.0
2017-Sep-15 17:29N 37°57' E 023°36'0 0.0
2017-Sep-15 16:59N 37°57' E 023°36'0 0.1
2017-Sep-15 16:30N 37°57' E 023°36'0 0.0
2017-Sep-15 16:00N 37°57' E 023°36'0 0.0
2017-Sep-15 15:30N 37°57' E 023°36'0 0.0
2017-Sep-15 15:00N 37°57' E 023°36'0 0.0
2017-Sep-15 14:30N 37°57' E 023°36'0 0.0
2017-Sep-15 14:00N 37°57' E 023°36'0 0.0
2017-Sep-15 13:30N 37°57' E 023°36'0 0.0
2017-Sep-15 13:00N 37°57' E 023°36'0 0.0
2017-Sep-15 12:30N 37°57' E 023°36'0 0.0
2017-Sep-15 12:00N 37°57' E 023°36'0 0.0
2017-Sep-15 11:27N 37°57' E 023°36'0 0.0
2017-Sep-15 11:00N 37°57' E 023°36'0 0.0
2017-Sep-15 10:30N 37°57' E 023°36'0 0.0
2017-Sep-15 10:00N 37°57' E 023°36'0 0.0
2017-Sep-15 09:30N 37°57' E 023°36'0 0.0
2017-Sep-15 08:57N 37°57' E 023°36'0 0.0
2017-Sep-15 08:30N 37°57' E 023°36'0 0.0
2017-Sep-15 08:00N 37°57' E 023°36'0 0.0
2017-Sep-15 07:27N 37°57' E 023°36'0 0.0
2017-Sep-15 07:00N 37°57' E 023°36'0 0.0
2017-Sep-15 06:30N 37°57' E 023°36'0 0.0
2017-Sep-15 06:00N 37°57' E 023°36'0 0.0
2017-Sep-15 05:21N 37°57' E 023°36'0 0.0
2017-Sep-15 05:00N 37°57' E 023°36'0 0.0
2017-Sep-15 04:30N 37°57' E 023°36'0 0.0
2017-Sep-15 04:00N 37°57' E 023°36'0 0.0
2017-Sep-15 03:30N 37°57' E 023°36'0 0.0
2017-Sep-15 03:00N 37°57' E 023°36'0 0.0
2017-Sep-15 02:30N 37°57' E 023°36'0 0.0
2017-Sep-15 02:00N 37°57' E 023°36'0 0.0
2017-Sep-15 01:30N 37°57' E 023°36'0 0.0
2017-Sep-15 01:00N 37°57' E 023°36'0 0.0
2017-Sep-15 00:30N 37°57' E 023°36'0 0.0
2017-Sep-14 23:54N 37°57' E 023°36'0 0.0
2017-Sep-14 23:30N 37°57' E 023°36'0 0.0
2017-Sep-14 23:00N 37°57' E 023°36'0 0.0
2017-Sep-14 22:30N 37°57' E 023°36'0 0.0
2017-Sep-14 21:57N 37°57' E 023°36'0 0.0
2017-Sep-14 21:30N 37°57' E 023°36'0 0.0
2017-Sep-14 21:00N 37°57' E 023°36'0 0.0
2017-Sep-14 20:27N 37°57' E 023°36'0 0.0
2017-Sep-14 20:00N 37°57' E 023°36'0 0.0
2017-Sep-14 19:30N 37°57' E 023°36'0 0.0
2017-Sep-14 19:00N 37°57' E 023°36'0 0.0
2017-Sep-14 18:30N 37°57' E 023°36'0 0.0
2017-Sep-14 18:00N 37°57' E 023°36'0 0.1
2017-Sep-14 17:24N 37°57' E 023°36'0 0.0
2017-Sep-14 16:57N 37°57' E 023°36'0 0.0
2017-Sep-14 16:30N 37°57' E 023°36'0 0.0
2017-Sep-14 15:57N 37°57' E 023°36'0 0.0
2017-Sep-14 15:24N 37°57' E 023°36'0 0.0
2017-Sep-14 14:54N 37°57' E 023°36'0 0.0
2017-Sep-14 14:30N 37°57' E 023°36'1 2.5
2017-Sep-14 14:00N 37°56' E 023°38'0 0.8
2017-Sep-14 13:30N 37°56' E 023°37'1 1.7
2017-Sep-14 12:53N 37°57' E 023°36'0 0.0
2017-Sep-14 12:29N 37°57' E 023°36'0 0.0
2017-Sep-14 11:56N 37°57' E 023°36'0 0.1
2017-Sep-14 11:29N 37°57' E 023°36'0 0.2
2017-Sep-14 10:59N 37°57' E 023°36'0 0.0
2017-Sep-14 10:29N 37°57' E 023°36'0 0.0
2017-Sep-14 09:59N 37°57' E 023°36'0 0.0
2017-Sep-14 09:29N 37°57' E 023°36'0 0.0
2017-Sep-14 08:59N 37°57' E 023°36'0 0.0
2017-Sep-14 08:29N 37°57' E 023°36'0 0.0
2017-Sep-14 07:59N 37°57' E 023°36'0 0.0
2017-Sep-14 07:23N 37°57' E 023°36'0 0.0
2017-Sep-14 06:59N 37°57' E 023°36'0 0.0
2017-Sep-14 06:29N 37°57' E 023°36'0 0.0
2017-Sep-14 05:59N 37°57' E 023°36'0 0.0
2017-Sep-14 05:26N 37°57' E 023°36'0 0.0
2017-Sep-14 04:59N 37°57' E 023°36'0 0.0
2017-Sep-14 04:26N 37°57' E 023°36'0 0.0
2017-Sep-14 03:56N 37°57' E 023°36'0 0.0
2017-Sep-14 03:17N 37°57' E 023°36'0 0.0
2017-Sep-14 02:50N 37°57' E 023°36'0 0.0
2017-Sep-14 02:20N 37°57' E 023°36'0 0.0
2017-Sep-14 01:56N 37°57' E 023°36'0 0.0
2017-Sep-14 01:05N 37°57' E 023°36'0 0.0
2017-Sep-14 00:56N 37°57' E 023°36'0 0.0
2017-Sep-14 00:20N 37°57' E 023°36'0 0.0
2017-Sep-13 23:53N 37°57' E 023°36'0 0.0
2017-Sep-13 23:29N 37°57' E 023°36'0 0.0
2017-Sep-13 22:56N 37°57' E 023°36'0 0.0
2017-Sep-13 22:08N 37°57' E 023°36'0 0.0
2017-Sep-13 21:56N 37°57' E 023°36'0 0.0
2017-Sep-13 21:29N 37°57' E 023°36'0 0.0
2017-Sep-13 20:44N 37°57' E 023°36'0 0.0
2017-Sep-13 20:26N 37°57' E 023°36'0 0.0
2017-Sep-13 19:56N 37°57' E 023°36'0 0.0
2017-Sep-13 19:20N 37°57' E 023°36'0 0.0
2017-Sep-13 18:53N 37°57' E 023°36'0 0.0
2017-Sep-13 18:23N 37°57' E 023°36'0 0.0
2017-Sep-13 17:59N 37°57' E 023°36'0 0.0
2017-Sep-13 17:26N 37°57' E 023°36'0 0.0
2017-Sep-13 16:56N 37°57' E 023°36'0 0.0
2017-Sep-13 16:29N 37°57' E 023°36'0 0.0
2017-Sep-13 15:56N 37°57' E 023°36'0 0.0
2017-Sep-13 15:14N 37°57' E 023°36'0 0.0
2017-Sep-13 14:50N 37°57' E 023°36'0 0.0
2017-Sep-13 14:20N 37°57' E 023°36'0 0.0
2017-Sep-13 13:50N 37°57' E 023°36'0 0.0
2017-Sep-13 13:20N 37°57' E 023°36'0 0.0
2017-Sep-13 12:56N 37°57' E 023°36'0 0.0
2017-Sep-13 12:26N 37°57' E 023°36'0 0.0
2017-Sep-13 11:56N 37°57' E 023°36'0 0.0
2017-Sep-13 11:29N 37°57' E 023°36'0 0.0
2017-Sep-13 10:56N 37°57' E 023°36'0 0.0
2017-Sep-13 10:23N 37°57' E 023°36'0 0.0
2017-Sep-13 09:50N 37°57' E 023°36'0 0.0
2017-Sep-13 09:29N 37°57' E 023°36'0 0.0
2017-Sep-13 08:44N 37°57' E 023°36'0 0.0
2017-Sep-13 08:29N 37°57' E 023°36'0 0.0
2017-Sep-13 07:56N 37°57' E 023°36'0 0.0
2017-Sep-13 07:20N 37°57' E 023°36'0 0.0
2017-Sep-13 06:56N 37°57' E 023°36'0 0.0
2017-Sep-13 06:26N 37°57' E 023°36'0 0.0
2017-Sep-13 05:50N 37°57' E 023°36'0 0.0
2017-Sep-13 05:26N 37°57' E 023°36'0 0.0
2017-Sep-13 04:56N 37°57' E 023°36'0 0.1
2017-Sep-13 04:30N 37°57' E 023°36'0 0.1
2017-Sep-13 03:50N 37°57' E 023°36'0 0.0
2017-Sep-13 03:14N 37°57' E 023°36'0 0.0
2017-Sep-13 02:50N 37°57' E 023°36'0 0.0
2017-Sep-13 02:26N 37°57' E 023°36'0 0.0
2017-Sep-13 01:56N 37°57' E 023°36'0 0.0
2017-Sep-13 01:26N 37°57' E 023°36'0 0.0
2017-Sep-13 00:59N 37°57' E 023°36'0 0.0
2017-Sep-13 00:29N 37°57' E 023°36'0 0.0
2017-Sep-12 23:44N 37°57' E 023°36'0 0.0
2017-Sep-12 23:14N 37°57' E 023°36'0 0.0
2017-Sep-12 22:56N 37°57' E 023°36'0 0.0
2017-Sep-12 22:26N 37°57' E 023°36'0 0.0
2017-Sep-12 21:59N 37°57' E 023°36'0 0.0
2017-Sep-12 21:29N 37°57' E 023°36'0 0.0
2017-Sep-12 20:59N 37°57' E 023°36'0 0.0
2017-Sep-12 20:26N 37°57' E 023°36'0 0.0
2017-Sep-12 19:59N 37°57' E 023°36'0 0.0
2017-Sep-12 19:29N 37°57' E 023°36'0 0.0
2017-Sep-12 18:56N 37°57' E 023°36'0 0.0
2017-Sep-12 18:29N 37°57' E 023°36'0 0.0
2017-Sep-12 17:59N 37°57' E 023°36'0 0.0
2017-Sep-12 17:29N 37°57' E 023°36'0 0.0
2017-Sep-12 16:56N 37°57' E 023°36'0 0.0
2017-Sep-12 16:29N 37°57' E 023°36'0 0.0
2017-Sep-12 15:59N 37°57' E 023°36'0 0.0
2017-Sep-12 15:29N 37°57' E 023°36'0 0.0
2017-Sep-12 14:59N 37°57' E 023°36'0 0.0
2017-Sep-12 14:29N 37°57' E 023°36'0 0.0
2017-Sep-12 13:53N 37°57' E 023°36'0 0.0
2017-Sep-12 13:26N 37°57' E 023°36'0 0.0
2017-Sep-12 12:56N 37°57' E 023°36'0 0.0
2017-Sep-12 12:29N 37°57' E 023°36'0 0.0
2017-Sep-12 11:56N 37°57' E 023°36'0 0.0
2017-Sep-12 11:29N 37°57' E 023°36'0 0.0
2017-Sep-12 10:59N 37°57' E 023°36'0 0.0
2017-Sep-12 10:29N 37°57' E 023°36'0 0.0
2017-Sep-12 09:59N 37°57' E 023°36'0 0.0
2017-Sep-12 09:26N 37°57' E 023°36'0 0.0
2017-Sep-12 08:53N 37°57' E 023°36'0 0.0
2017-Sep-12 08:26N 37°57' E 023°36'0 0.0
2017-Sep-12 07:56N 37°57' E 023°36'0 0.0
2017-Sep-12 07:26N 37°57' E 023°36'0 0.0
2017-Sep-12 06:59N 37°57' E 023°36'0 0.0
2017-Sep-12 06:23N 37°57' E 023°36'0 0.0
2017-Sep-12 05:59N 37°57' E 023°36'0 0.0
2017-Sep-12 05:29N 37°57' E 023°36'0 0.1
2017-Sep-12 04:59N 37°57' E 023°36'0 0.1
2017-Sep-12 04:28N 37°57' E 023°36'0 0.0
2017-Sep-12 03:58N 37°57' E 023°36'0 0.0
2017-Sep-12 03:28N 37°57' E 023°36'0 0.0
2017-Sep-12 02:58N 37°57' E 023°36'0 0.0
2017-Sep-12 02:28N 37°57' E 023°36'  
Track history (hours):
 
Tides and Currents Weather Stations Pressure Air Temp Water Temp Dewpoint Dewpoint Depression Visibility Wind Speed Wind Dir Waves Ship Positions

Fotini Z

Last reported at 2017-Sep-22 01:58 UTC. Time now 2017-Sep-22 19:09 UTC.
Position N 37°57' E 023°36'.

Length 38 m; draft 3.6 m.

Type: Tug. MMSI: 241500000.

Date/timePositionNaut miles runAvg speedWind from/ knotsBaromVisibWave heightAir tempDewpointWater temp
2017-Sep-22 01:58N 37°57' E 023°36'0 0.0
2017-Sep-22 01:28N 37°57' E 023°36'0 0.0
2017-Sep-22 00:58N 37°57' E 023°36'0 0.0
2017-Sep-22 00:28N 37°57' E 023°36'0 0.0
2017-Sep-21 23:58N 37°57' E 023°36'0 0.0
2017-Sep-21 23:28N 37°57' E 023°36'0 0.0
2017-Sep-21 22:58N 37°57' E 023°36'0 0.0
2017-Sep-21 22:28N 37°57' E 023°36'0 0.0
2017-Sep-21 21:58N 37°57' E 023°36'0 0.0
2017-Sep-21 21:28N 37°57' E 023°36'0 0.0
2017-Sep-21 20:58N 37°57' E 023°36'0 0.0
2017-Sep-21 20:28N 37°57' E 023°36'0 0.0
2017-Sep-21 19:58N 37°57' E 023°36'0 0.0
2017-Sep-21 19:25N 37°57' E 023°36'2 5.6
2017-Sep-21 19:00N 37°57' E 023°33'4 8.3
2017-Sep-21 18:28N 38°02' E 023°33'1 1.1
2017-Sep-21 17:58N 38°02' E 023°32'0 0.8
2017-Sep-21 17:31N 38°02' E 023°32'1 1.4
2017-Sep-21 16:58N 38°01' E 023°32'0 0.5
2017-Sep-21 16:28N 38°01' E 023°31'1 1.8
2017-Sep-21 16:00N 38°02' E 023°30'0 0.4
2017-Sep-21 15:28N 38°02' E 023°30'1 1.1
2017-Sep-21 15:01N 38°01' E 023°30'2 4.2
2017-Sep-21 14:30N 38°00' E 023°33'2 4.0
2017-Sep-21 14:00N 37°58' E 023°33'1 2.0
2017-Sep-21 13:30N 37°57' E 023°33'0 0.5
2017-Sep-21 13:00N 37°58' E 023°33'0 0.0
2017-Sep-21 12:27N 37°58' E 023°33'0 0.0
2017-Sep-21 12:00N 37°58' E 023°33'0 0.0
2017-Sep-21 11:27N 37°58' E 023°33'0 0.0
2017-Sep-21 10:51N 37°58' E 023°33'0 0.1
2017-Sep-21 10:30N 37°58' E 023°33'0 0.0
2017-Sep-21 10:00N 37°58' E 023°33'0 0.0
2017-Sep-21 09:30N 37°58' E 023°33'0 0.0
2017-Sep-21 09:00N 37°58' E 023°33'0 0.0
2017-Sep-21 08:30N 37°58' E 023°33'0 0.0
2017-Sep-21 08:00N 37°58' E 023°33'0 0.0
2017-Sep-21 07:30N 37°58' E 023°33'0 0.0
2017-Sep-21 07:00N 37°58' E 023°33'0 0.0
2017-Sep-21 06:30N 37°58' E 023°33'2 4.4
2017-Sep-21 06:00N 37°57' E 023°36'0 0.4
2017-Sep-21 05:30N 37°57' E 023°36'0 0.0
2017-Sep-21 05:00N 37°57' E 023°36'0 0.0
2017-Sep-21 04:30N 37°57' E 023°36'0 0.0
2017-Sep-21 03:57N 37°57' E 023°36'0 0.0
2017-Sep-21 03:30N 37°57' E 023°36'0 0.0
2017-Sep-21 03:00N 37°57' E 023°36'0 0.0
2017-Sep-21 02:30N 37°57' E 023°36'0 0.0
2017-Sep-21 01:57N 37°57' E 023°36'0 0.0
2017-Sep-21 01:30N 37°57' E 023°36'0 0.0
2017-Sep-21 00:57N 37°57' E 023°36'0 0.0
2017-Sep-21 00:30N 37°57' E 023°36'0 0.0
2017-Sep-21 00:00N 37°57' E 023°36'0 0.0
2017-Sep-20 23:30N 37°57' E 023°36'0 0.0
2017-Sep-20 23:00N 37°57' E 023°36'0 0.0
2017-Sep-20 22:30N 37°57' E 023°36'0 0.0
2017-Sep-20 22:00N 37°57' E 023°36'0 0.0
2017-Sep-20 21:30N 37°57' E 023°36'0 0.0
2017-Sep-20 21:00N 37°57' E 023°36'0 0.0
2017-Sep-20 20:30N 37°57' E 023°36'0 0.0
2017-Sep-20 19:57N 37°57' E 023°36'0 0.0
2017-Sep-20 19:30N 37°57' E 023°36'0 0.0
2017-Sep-20 19:00N 37°57' E 023°36'0 0.0
2017-Sep-20 18:30N 37°57' E 023°36'0 0.0
2017-Sep-20 17:59N 37°57' E 023°36'0 0.0
2017-Sep-20 17:29N 37°57' E 023°36'0 0.0
2017-Sep-20 16:59N 37°57' E 023°36'0 0.0
2017-Sep-20 16:29N 37°57' E 023°36'0 0.0
2017-Sep-20 15:59N 37°57' E 023°36'0 0.0
2017-Sep-20 15:29N 37°57' E 023°36'0 0.0
2017-Sep-20 14:59N 37°57' E 023°36'0 0.0
2017-Sep-20 13:59N 37°57' E 023°36'0 0.0
2017-Sep-20 13:29N 37°57' E 023°36'0 0.0
2017-Sep-20 12:59N 37°57' E 023°36'0 0.0
2017-Sep-20 12:29N 37°57' E 023°36'0 0.0
2017-Sep-20 11:56N 37°57' E 023°36'0 0.0
2017-Sep-20 11:29N 37°57' E 023°36'0 0.0
2017-Sep-20 10:56N 37°57' E 023°36'0 0.0
2017-Sep-20 10:26N 37°57' E 023°36'0 0.0
2017-Sep-20 09:59N 37°57' E 023°36'0 0.0
2017-Sep-20 09:29N 37°57' E 023°36'0 0.0
2017-Sep-20 08:59N 37°57' E 023°36'0 0.0
2017-Sep-20 08:29N 37°57' E 023°36'0 0.0
2017-Sep-20 07:59N 37°57' E 023°36'0 0.0
2017-Sep-20 07:26N 37°57' E 023°36'0 0.0
2017-Sep-20 06:59N 37°57' E 023°36'0 0.0
2017-Sep-20 06:29N 37°57' E 023°36'0 0.0
2017-Sep-20 05:59N 37°57' E 023°36'0 0.0
2017-Sep-20 05:29N 37°57' E 023°36'0 0.0
2017-Sep-20 04:59N 37°57' E 023°36'0 0.0
2017-Sep-20 04:26N 37°57' E 023°36'0 0.0
2017-Sep-20 03:59N 37°57' E 023°36'0 0.0
2017-Sep-20 03:29N 37°57' E 023°36'0 0.0
2017-Sep-20 02:59N 37°57' E 023°36'0 0.0
2017-Sep-20 02:29N 37°57' E 023°36'0 0.0
2017-Sep-20 01:59N 37°57' E 023°36'0 0.0
2017-Sep-20 01:26N 37°57' E 023°36'0 0.0
2017-Sep-20 00:59N 37°57' E 023°36'0 0.0
2017-Sep-20 00:29N 37°57' E 023°36'0 0.0
2017-Sep-19 23:59N 37°57' E 023°36'0 0.0
2017-Sep-19 23:29N 37°57' E 023°36'0 0.0
2017-Sep-19 22:56N 37°57' E 023°36'0 0.0
2017-Sep-19 22:26N 37°57' E 023°36'0 0.0
2017-Sep-19 21:59N 37°57' E 023°36'0 0.0
2017-Sep-19 21:29N 37°57' E 023°36'0 0.0
2017-Sep-19 20:59N 37°57' E 023°36'0 0.0
2017-Sep-19 20:26N 37°57' E 023°36'0 0.0
2017-Sep-19 19:59N 37°57' E 023°36'0 0.0
2017-Sep-19 19:29N 37°57' E 023°36'0 0.0
2017-Sep-19 18:59N 37°57' E 023°36'0 0.0
2017-Sep-19 18:29N 37°57' E 023°36'0 0.0
2017-Sep-19 17:59N 37°57' E 023°36'0 0.0
2017-Sep-19 17:29N 37°57' E 023°36'0 0.0
2017-Sep-19 16:59N 37°57' E 023°36'0 0.0
2017-Sep-19 16:29N 37°57' E 023°36'0 0.0
2017-Sep-19 15:59N 37°57' E 023°36'0 0.0
2017-Sep-19 15:29N 37°57' E 023°36'0 0.0
2017-Sep-19 14:59N 37°57' E 023°36'0 0.0
2017-Sep-19 14:29N 37°57' E 023°36'0 0.0
2017-Sep-19 13:56N 37°57' E 023°36'0 0.0
2017-Sep-19 13:29N 37°57' E 023°36'0 0.0
2017-Sep-19 12:59N 37°57' E 023°36'0 0.0
2017-Sep-19 12:29N 37°57' E 023°36'0 0.0
2017-Sep-19 11:59N 37°57' E 023°36'0 0.0
2017-Sep-19 11:29N 37°57' E 023°36'0 0.0
2017-Sep-19 10:59N 37°57' E 023°36'0 0.0
2017-Sep-19 10:29N 37°57' E 023°36'0 0.0
2017-Sep-19 09:59N 37°57' E 023°36'0 0.0
2017-Sep-19 09:29N 37°57' E 023°36'0 0.0
2017-Sep-19 08:59N 37°57' E 023°36'0 0.0
2017-Sep-19 08:29N 37°57' E 023°36'0 0.0
2017-Sep-19 07:56N 37°57' E 023°36'0 0.0
2017-Sep-19 07:29N 37°57' E 023°36'0 0.0
2017-Sep-19 06:59N 37°57' E 023°36'0 0.0
2017-Sep-19 06:29N 37°57' E 023°36'0 0.0
2017-Sep-19 05:59N 37°57' E 023°36'0 0.0
2017-Sep-19 05:29N 37°57' E 023°36'0 0.0
2017-Sep-19 04:59N 37°57' E 023°36'0 0.0
2017-Sep-19 04:29N 37°57' E 023°36'0 0.0
2017-Sep-19 03:59N 37°57' E 023°36'0 0.0
2017-Sep-19 03:29N 37°57' E 023°36'0 0.0
2017-Sep-19 02:59N 37°57' E 023°36'0 0.0
2017-Sep-19 02:29N 37°57' E 023°36'0 0.0
2017-Sep-19 01:59N 37°57' E 023°36'0 0.0
2017-Sep-19 01:29N 37°57' E 023°36'0 0.0
2017-Sep-19 00:59N 37°57' E 023°36'0 0.0
2017-Sep-19 00:29N 37°57' E 023°36'0 0.0
2017-Sep-18 23:59N 37°57' E 023°36'0 0.0
2017-Sep-18 23:29N 37°57' E 023°36'0 0.0
2017-Sep-18 22:59N 37°57' E 023°36'0 0.0
2017-Sep-18 22:29N 37°57' E 023°36'0 0.0
2017-Sep-18 21:59N 37°57' E 023°36'0 0.0
2017-Sep-18 21:29N 37°57' E 023°36'0 0.0
2017-Sep-18 20:59N 37°57' E 023°36'0 0.0
2017-Sep-18 20:29N 37°57' E 023°36'0 0.0
2017-Sep-18 19:59N 37°57' E 023°36'0 0.0
2017-Sep-18 19:29N 37°57' E 023°36'0 0.0
2017-Sep-18 18:59N 37°57' E 023°36'0 0.0
2017-Sep-18 18:26N 37°57' E 023°36'0 0.0
2017-Sep-18 17:56N 37°57' E 023°36'0 0.0
2017-Sep-18 17:26N 37°57' E 023°36'0 0.0
2017-Sep-18 16:59N 37°57' E 023°36'0 0.0
2017-Sep-18 16:26N 37°57' E 023°36'0 0.0
2017-Sep-18 15:53N 37°57' E 023°36'0 0.0
2017-Sep-18 15:29N 37°57' E 023°36'0 0.0
2017-Sep-18 14:59N 37°57' E 023°36'0 0.0
2017-Sep-18 14:29N 37°57' E 023°36'0 0.0
2017-Sep-18 13:59N 37°57' E 023°36'0 0.0
2017-Sep-18 13:29N 37°57' E 023°36'0 0.0
2017-Sep-18 12:59N 37°57' E 023°36'0 0.0
2017-Sep-18 12:29N 37°57' E 023°36'0 0.0
2017-Sep-18 11:56N 37°57' E 023°36'0 0.0
2017-Sep-18 11:29N 37°57' E 023°36'0 0.0
2017-Sep-18 10:59N 37°57' E 023°36'0 0.0
2017-Sep-18 10:29N 37°57' E 023°36'1 1.0
2017-Sep-18 09:58N 37°57' E 023°36'1 1.1
2017-Sep-18 09:29N 37°57' E 023°36'0 0.0
2017-Sep-18 08:59N 37°57' E 023°36'0 0.0
2017-Sep-18 08:26N 37°57' E 023°36'0 0.0
2017-Sep-18 07:59N 37°57' E 023°36'0 0.0
2017-Sep-18 07:29N 37°57' E 023°36'0 0.2
2017-Sep-18 06:56N 37°57' E 023°36'0 0.3
2017-Sep-18 06:29N 37°57' E 023°36'0 0.0
2017-Sep-18 05:59N 37°57' E 023°36'0 0.0
2017-Sep-18 05:29N 37°57' E 023°36'0 0.0
2017-Sep-18 04:59N 37°57' E 023°36'0 0.0
2017-Sep-18 04:29N 37°57' E 023°36'0 0.0
2017-Sep-18 03:59N 37°57' E 023°36'0 0.0
2017-Sep-18 03:29N 37°57' E 023°36'0 0.0
2017-Sep-18 02:59N 37°57' E 023°36'0 0.0
2017-Sep-18 02:29N 37°57' E 023°36'0 0.0
2017-Sep-18 01:56N 37°57' E 023°36'0 0.0
2017-Sep-18 01:29N 37°57' E 023°36'0 0.0
2017-Sep-18 00:59N 37°57' E 023°36'0 0.0
2017-Sep-18 00:29N 37°57' E 023°36'0 0.0
2017-Sep-17 23:59N 37°57' E 023°36'0 0.0
2017-Sep-17 23:29N 37°57' E 023°36'0 0.0
2017-Sep-17 22:59N 37°57' E 023°36'0 0.0
2017-Sep-17 22:26N 37°57' E 023°36'0 0.0
2017-Sep-17 21:59N 37°57' E 023°36'0 0.0
2017-Sep-17 21:29N 37°57' E 023°36'0 0.0
2017-Sep-17 20:56N 37°57' E 023°36'0 0.0
2017-Sep-17 20:29N 37°57' E 023°36'0 0.0
2017-Sep-17 19:59N 37°57' E 023°36'0 0.0
2017-Sep-17 19:29N 37°57' E 023°36'0 0.0
2017-Sep-17 18:59N 37°57' E 023°36'0 0.0
2017-Sep-17 18:29N 37°57' E 023°36'0 0.0
2017-Sep-17 17:56N 37°57' E 023°36'0 0.0
2017-Sep-17 17:26N 37°57' E 023°36'0 0.0
2017-Sep-17 16:59N 37°57' E 023°36'0 0.0
2017-Sep-17 16:29N 37°57' E 023°36'0 0.0
2017-Sep-17 15:59N 37°57' E 023°36'0 0.0
2017-Sep-17 15:29N 37°57' E 023°36'0 0.0
2017-Sep-17 14:59N 37°57' E 023°36'0 0.0
2017-Sep-17 14:26N 37°57' E 023°36'0 0.0
2017-Sep-17 13:59N 37°57' E 023°36'0 0.0
2017-Sep-17 13:26N 37°57' E 023°36'0 0.0
2017-Sep-17 12:59N 37°57' E 023°36'0 0.0
2017-Sep-17 12:29N 37°57' E 023°36'0 0.0
2017-Sep-17 11:59N 37°57' E 023°36'0 0.0
2017-Sep-17 11:29N 37°57' E 023°36'0 0.0
2017-Sep-17 10:59N 37°57' E 023°36'0 0.0
2017-Sep-17 10:29N 37°57' E 023°36'0 0.0
2017-Sep-17 09:59N 37°57' E 023°36'0 0.0
2017-Sep-17 09:29N 37°57' E 023°36'0 0.0
2017-Sep-17 08:59N 37°57' E 023°36'0 0.0
2017-Sep-17 08:29N 37°57' E 023°36'0 0.0
2017-Sep-17 07:59N 37°57' E 023°36'0 0.0
2017-Sep-17 07:29N 37°57' E 023°36'0 0.0
2017-Sep-17 06:59N 37°57' E 023°36'0 0.0
2017-Sep-17 06:29N 37°57' E 023°36'0 0.0
2017-Sep-17 05:59N 37°57' E 023°36'0 0.0
2017-Sep-17 05:29N 37°57' E 023°36'0 0.0
2017-Sep-17 04:59N 37°57' E 023°36'0 0.0
2017-Sep-17 04:26N 37°57' E 023°36'0 0.0
2017-Sep-17 03:59N 37°57' E 023°36'0 0.0
2017-Sep-17 03:29N 37°57' E 023°36'0 0.0
2017-Sep-17 02:56N 37°57' E 023°36'0 0.0
2017-Sep-17 02:29N 37°57' E 023°36'0 0.0
2017-Sep-17 01:59N 37°57' E 023°36'0 0.0
2017-Sep-17 01:29N 37°57' E 023°36'0 0.0
2017-Sep-17 00:56N 37°57' E 023°36'0 0.0
2017-Sep-17 00:29N 37°57' E 023°36'0 0.0
2017-Sep-16 23:59N 37°57' E 023°36'0 0.0
2017-Sep-16 23:29N 37°57' E 023°36'0 0.0
2017-Sep-16 22:59N 37°57' E 023°36'0 0.0
2017-Sep-16 22:29N 37°57' E 023°36'0 0.0
2017-Sep-16 21:59N 37°57' E 023°36'0 0.0
2017-Sep-16 21:29N 37°57' E 023°36'0 0.0
2017-Sep-16 20:59N 37°57' E 023°36'0 0.0
2017-Sep-16 20:29N 37°57' E 023°36'0 0.0
2017-Sep-16 19:59N 37°57' E 023°36'0 0.0
2017-Sep-16 19:26N 37°57' E 023°36'0 0.0
2017-Sep-16 18:56N 37°57' E 023°36'0 0.0
2017-Sep-16 18:29N 37°57' E 023°36'0 0.0
2017-Sep-16 17:56N 37°57' E 023°36'0 0.0
2017-Sep-16 17:20N 37°57' E 023°36'0 0.0
2017-Sep-16 16:59N 37°57' E 023°36'0 0.0
2017-Sep-16 16:29N 37°57' E 023°36'1 2.1
2017-Sep-16 16:01N 37°57' E 023°35'4 7.6
2017-Sep-16 15:31N 38°00' E 023°33'2 4.1
2017-Sep-16 14:59N 38°02' E 023°32'1 2.4
2017-Sep-16 14:30N 38°01' E 023°32'1 2.7
2017-Sep-16 14:00N 38°00' E 023°33'4 7.5
2017-Sep-16 13:30N 37°57' E 023°35'1 1.3
2017-Sep-16 12:56N 37°57' E 023°36'0 0.0
2017-Sep-16 12:29N 37°57' E 023°36'0 0.0
2017-Sep-16 11:56N 37°57' E 023°36'0 0.0
2017-Sep-16 11:29N 37°57' E 023°36'0 0.0
2017-Sep-16 10:59N 37°57' E 023°36'0 0.0
2017-Sep-16 10:29N 37°57' E 023°36'0 0.0
2017-Sep-16 09:59N 37°57' E 023°36'0 0.0
2017-Sep-16 09:29N 37°57' E 023°36'0 0.0
2017-Sep-16 08:56N 37°57' E 023°36'0 0.0
2017-Sep-16 08:29N 37°57' E 023°36'0 0.0
2017-Sep-16 07:59N 37°57' E 023°36'0 0.0
2017-Sep-16 07:26N 37°57' E 023°36'0 0.0
2017-Sep-16 06:59N 37°57' E 023°36'0 0.0
2017-Sep-16 06:29N 37°57' E 023°36'0 0.0
2017-Sep-16 05:59N 37°57' E 023°36'0 0.0
2017-Sep-16 05:29N 37°57' E 023°36'0 0.0
2017-Sep-16 04:59N 37°57' E 023°36'0 0.0
2017-Sep-16 04:29N 37°57' E 023°36'0 0.0
2017-Sep-16 03:59N 37°57' E 023°36'0 0.0
2017-Sep-16 03:29N 37°57' E 023°36'0 0.0
2017-Sep-16 02:59N 37°57' E 023°36'1 2.5
2017-Sep-16 02:29N 37°56' E 023°38'0 0.1
2017-Sep-16 01:59N 37°56' E 023°38'1 2.4
2017-Sep-16 01:30N 37°56' E 023°37'1 2.4
2017-Sep-16 00:58N 37°57' E 023°36'0 0.0
2017-Sep-16 00:28N 37°57' E 023°36'0 0.0
2017-Sep-15 23:52N 37°57' E 023°36'0 0.0
2017-Sep-15 23:28N 37°57' E 023°36'0 0.0
2017-Sep-15 22:55N 37°57' E 023°36'0 0.0
2017-Sep-15 22:28N 37°57' E 023°36'0 0.0
2017-Sep-15 21:58N 37°57' E 023°36'0 0.0
2017-Sep-15 21:28N 37°57' E 023°36'0 0.0
2017-Sep-15 20:49N 37°57' E 023°36'0 0.0
2017-Sep-15 20:28N 37°57' E 023°36'0 0.0
2017-Sep-15 19:58N 37°57' E 023°36'1 3.0
2017-Sep-15 19:30N 37°57' E 023°35'0 0.4
2017-Sep-15 19:00N 37°57' E 023°35'1 2.0
2017-Sep-15 18:30N 37°57' E 023°36'0 0.4
2017-Sep-15 17:56N 37°57' E 023°36'0 0.0
2017-Sep-15 17:29N 37°57' E 023°36'0 0.0
2017-Sep-15 16:59N 37°57' E 023°36'0 0.1
2017-Sep-15 16:30N 37°57' E 023°36'0 0.0
2017-Sep-15 16:00N 37°57' E 023°36'0 0.0
2017-Sep-15 15:30N 37°57' E 023°36'0 0.0
2017-Sep-15 15:00N 37°57' E 023°36'0 0.0
2017-Sep-15 14:30N 37°57' E 023°36'0 0.0
2017-Sep-15 14:00N 37°57' E 023°36'0 0.0
2017-Sep-15 13:30N 37°57' E 023°36'0 0.0
2017-Sep-15 13:00N 37°57' E 023°36'0 0.0
2017-Sep-15 12:30N 37°57' E 023°36'0 0.0
2017-Sep-15 12:00N 37°57' E 023°36'0 0.0
2017-Sep-15 11:27N 37°57' E 023°36'0 0.0
2017-Sep-15 11:00N 37°57' E 023°36'0 0.0
2017-Sep-15 10:30N 37°57' E 023°36'0 0.0
2017-Sep-15 10:00N 37°57' E 023°36'0 0.0
2017-Sep-15 09:30N 37°57' E 023°36'0 0.0
2017-Sep-15 08:57N 37°57' E 023°36'0 0.0
2017-Sep-15 08:30N 37°57' E 023°36'0 0.0
2017-Sep-15 08:00N 37°57' E 023°36'0 0.0
2017-Sep-15 07:27N 37°57' E 023°36'0 0.0
2017-Sep-15 07:00N 37°57' E 023°36'0 0.0
2017-Sep-15 06:30N 37°57' E 023°36'0 0.0
2017-Sep-15 06:00N 37°57' E 023°36'0 0.0
2017-Sep-15 05:21N 37°57' E 023°36'0 0.0
2017-Sep-15 05:00N 37°57' E 023°36'0 0.0
2017-Sep-15 04:30N 37°57' E 023°36'0 0.0
2017-Sep-15 04:00N 37°57' E 023°36'0 0.0
2017-Sep-15 03:30N 37°57' E 023°36'0 0.0
2017-Sep-15 03:00N 37°57' E 023°36'0 0.0
2017-Sep-15 02:30N 37°57' E 023°36'0 0.0
2017-Sep-15 02:00N 37°57' E 023°36'0 0.0
2017-Sep-15 01:30N 37°57' E 023°36'0 0.0
2017-Sep-15 01:00N 37°57' E 023°36'0 0.0
2017-Sep-15 00:30N 37°57' E 023°36'0 0.0
2017-Sep-14 23:54N 37°57' E 023°36'0 0.0
2017-Sep-14 23:30N 37°57' E 023°36'0 0.0
2017-Sep-14 23:00N 37°57' E 023°36'0 0.0
2017-Sep-14 22:30N 37°57' E 023°36'0 0.0
2017-Sep-14 21:57N 37°57' E 023°36'0 0.0
2017-Sep-14 21:30N 37°57' E 023°36'0 0.0
2017-Sep-14 21:00N 37°57' E 023°36'0 0.0
2017-Sep-14 20:27N 37°57' E 023°36'0 0.0
2017-Sep-14 20:00N 37°57' E 023°36'0 0.0
2017-Sep-14 19:30N 37°57' E 023°36'0 0.0
2017-Sep-14 19:00N 37°57' E 023°36'0 0.0
2017-Sep-14 18:30N 37°57' E 023°36'0 0.0
2017-Sep-14 18:00N 37°57' E 023°36'0 0.1
2017-Sep-14 17:24N 37°57' E 023°36'0 0.0
2017-Sep-14 16:57N 37°57' E 023°36'0 0.0
2017-Sep-14 16:30N 37°57' E 023°36'0 0.0
2017-Sep-14 15:57N 37°57' E 023°36'0 0.0
2017-Sep-14 15:24N 37°57' E 023°36'0 0.0
2017-Sep-14 14:54N 37°57' E 023°36'0 0.0
2017-Sep-14 14:30N 37°57' E 023°36'1 2.5
2017-Sep-14 14:00N 37°56' E 023°38'0 0.8
2017-Sep-14 13:30N 37°56' E 023°37'1 1.7
2017-Sep-14 12:53N 37°57' E 023°36'0 0.0
2017-Sep-14 12:29N 37°57' E 023°36'0 0.0
2017-Sep-14 11:56N 37°57' E 023°36'0 0.1
2017-Sep-14 11:29N 37°57' E 023°36'0 0.2
2017-Sep-14 10:59N 37°57' E 023°36'0 0.0
2017-Sep-14 10:29N 37°57' E 023°36'0 0.0
2017-Sep-14 09:59N 37°57' E 023°36'0 0.0
2017-Sep-14 09:29N 37°57' E 023°36'0 0.0
2017-Sep-14 08:59N 37°57' E 023°36'0 0.0
2017-Sep-14 08:29N 37°57' E 023°36'0 0.0
2017-Sep-14 07:59N 37°57' E 023°36'0 0.0
2017-Sep-14 07:23N 37°57' E 023°36'0 0.0
2017-Sep-14 06:59N 37°57' E 023°36'0 0.0
2017-Sep-14 06:29N 37°57' E 023°36'0 0.0
2017-Sep-14 05:59N 37°57' E 023°36'0 0.0
2017-Sep-14 05:26N 37°57' E 023°36'0 0.0
2017-Sep-14 04:59N 37°57' E 023°36'0 0.0
2017-Sep-14 04:26N 37°57' E 023°36'0 0.0
2017-Sep-14 03:56N 37°57' E 023°36'0 0.0
2017-Sep-14 03:17N 37°57' E 023°36'0 0.0
2017-Sep-14 02:50N 37°57' E 023°36'0 0.0
2017-Sep-14 02:20N 37°57' E 023°36'0 0.0
2017-Sep-14 01:56N 37°57' E 023°36'0 0.0
2017-Sep-14 01:05N 37°57' E 023°36'0 0.0
2017-Sep-14 00:56N 37°57' E 023°36'0 0.0
2017-Sep-14 00:20N 37°57' E 023°36'0 0.0
2017-Sep-13 23:53N 37°57' E 023°36'0 0.0
2017-Sep-13 23:29N 37°57' E 023°36'0 0.0
2017-Sep-13 22:56N 37°57' E 023°36'0 0.0
2017-Sep-13 22:08N 37°57' E 023°36'0 0.0
2017-Sep-13 21:56N 37°57' E 023°36'0 0.0
2017-Sep-13 21:29N 37°57' E 023°36'0 0.0
2017-Sep-13 20:44N 37°57' E 023°36'0 0.0
2017-Sep-13 20:26N 37°57' E 023°36'0 0.0
2017-Sep-13 19:56N 37°57' E 023°36'0 0.0
2017-Sep-13 19:20N 37°57' E 023°36'0 0.0
2017-Sep-13 18:53N 37°57' E 023°36'0 0.0
2017-Sep-13 18:23N 37°57' E 023°36'0 0.0
2017-Sep-13 17:59N 37°57' E 023°36'0 0.0
2017-Sep-13 17:26N 37°57' E 023°36'0 0.0
2017-Sep-13 16:56N 37°57' E 023°36'0 0.0
2017-Sep-13 16:29N 37°57' E 023°36'0 0.0
2017-Sep-13 15:56N 37°57' E 023°36'0 0.0
2017-Sep-13 15:14N 37°57' E 023°36'0 0.0
2017-Sep-13 14:50N 37°57' E 023°36'0 0.0
2017-Sep-13 14:20N 37°57' E 023°36'0 0.0
2017-Sep-13 13:50N 37°57' E 023°36'0 0.0
2017-Sep-13 13:20N 37°57' E 023°36'0 0.0
2017-Sep-13 12:56N 37°57' E 023°36'0 0.0
2017-Sep-13 12:26N 37°57' E 023°36'0 0.0
2017-Sep-13 11:56N 37°57' E 023°36'0 0.0
2017-Sep-13 11:29N 37°57' E 023°36'0 0.0
2017-Sep-13 10:56N 37°57' E 023°36'0 0.0
2017-Sep-13 10:23N 37°57' E 023°36'0 0.0
2017-Sep-13 09:50N 37°57' E 023°36'0 0.0
2017-Sep-13 09:29N 37°57' E 023°36'0 0.0
2017-Sep-13 08:44N 37°57' E 023°36'0 0.0
2017-Sep-13 08:29N 37°57' E 023°36'0 0.0
2017-Sep-13 07:56N 37°57' E 023°36'0 0.0
2017-Sep-13 07:20N 37°57' E 023°36'0 0.0
2017-Sep-13 06:56N 37°57' E 023°36'0 0.0
2017-Sep-13 06:26N 37°57' E 023°36'0 0.0
2017-Sep-13 05:50N 37°57' E 023°36'0 0.0
2017-Sep-13 05:26N 37°57' E 023°36'0 0.0
2017-Sep-13 04:56N 37°57' E 023°36'0 0.1
2017-Sep-13 04:30N 37°57' E 023°36'0 0.1
2017-Sep-13 03:50N 37°57' E 023°36'0 0.0
2017-Sep-13 03:14N 37°57' E 023°36'0 0.0
2017-Sep-13 02:50N 37°57' E 023°36'0 0.0
2017-Sep-13 02:26N 37°57' E 023°36'0 0.0
2017-Sep-13 01:56N 37°57' E 023°36'0 0.0
2017-Sep-13 01:26N 37°57' E 023°36'0 0.0
2017-Sep-13 00:59N 37°57' E 023°36'0 0.0
2017-Sep-13 00:29N 37°57' E 023°36'0 0.0
2017-Sep-12 23:44N 37°57' E 023°36'0 0.0
2017-Sep-12 23:14N 37°57' E 023°36'0 0.0
2017-Sep-12 22:56N 37°57' E 023°36'0 0.0
2017-Sep-12 22:26N 37°57' E 023°36'0 0.0
2017-Sep-12 21:59N 37°57' E 023°36'0 0.0
2017-Sep-12 21:29N 37°57' E 023°36'0 0.0
2017-Sep-12 20:59N 37°57' E 023°36'0 0.0
2017-Sep-12 20:26N 37°57' E 023°36'0 0.0
2017-Sep-12 19:59N 37°57' E 023°36'0 0.0
2017-Sep-12 19:29N 37°57' E 023°36'0 0.0
2017-Sep-12 18:56N 37°57' E 023°36'0 0.0
2017-Sep-12 18:29N 37°57' E 023°36'0 0.0
2017-Sep-12 17:59N 37°57' E 023°36'0 0.0
2017-Sep-12 17:29N 37°57' E 023°36'0 0.0
2017-Sep-12 16:56N 37°57' E 023°36'0 0.0
2017-Sep-12 16:29N 37°57' E 023°36'0 0.0
2017-Sep-12 15:59N 37°57' E 023°36'0 0.0
2017-Sep-12 15:29N 37°57' E 023°36'0 0.0
2017-Sep-12 14:59N 37°57' E 023°36'0 0.0
2017-Sep-12 14:29N 37°57' E 023°36'0 0.0
2017-Sep-12 13:53N 37°57' E 023°36'0 0.0
2017-Sep-12 13:26N 37°57' E 023°36'0 0.0
2017-Sep-12 12:56N 37°57' E 023°36'0 0.0
2017-Sep-12 12:29N 37°57' E 023°36'0 0.0
2017-Sep-12 11:56N 37°57' E 023°36'0 0.0
2017-Sep-12 11:29N 37°57' E 023°36'0 0.0
2017-Sep-12 10:59N 37°57' E 023°36'0 0.0
2017-Sep-12 10:29N 37°57' E 023°36'0 0.0
2017-Sep-12 09:59N 37°57' E 023°36'0 0.0
2017-Sep-12 09:26N 37°57' E 023°36'0 0.0
2017-Sep-12 08:53N 37°57' E 023°36'0 0.0
2017-Sep-12 08:26N 37°57' E 023°36'0 0.0
2017-Sep-12 07:56N 37°57' E 023°36'0 0.0
2017-Sep-12 07:26N 37°57' E 023°36'0 0.0
2017-Sep-12 06:59N 37°57' E 023°36'0 0.0
2017-Sep-12 06:23N 37°57' E 023°36'0 0.0
2017-Sep-12 05:59N 37°57' E 023°36'0 0.0
2017-Sep-12 05:29N 37°57' E 023°36'0 0.1
2017-Sep-12 04:59N 37°57' E 023°36'0 0.1
2017-Sep-12 04:28N 37°57' E 023°36'0 0.0
2017-Sep-12 03:58N 37°57' E 023°36'0 0.0
2017-Sep-12 03:28N 37°57' E 023°36'0 0.0
2017-Sep-12 02:58N 37°57' E 023°36'0 0.0
2017-Sep-12 02:28N 37°57' E 023°36'  

Dump ship's entire track history